sensor_id;sensor_type;location;lat;lon;timestamp;temperature;humidity
51950;DHT22;37974;53.218;6.640;2024-03-08T00:01:56;2.40;99.90
51950;DHT22;37974;53.218;6.640;2024-03-08T00:04:22;1.70;99.90
51950;DHT22;37974;53.218;6.640;2024-03-08T00:06:48;1.80;99.90
51950;DHT22;37974;53.218;6.640;2024-03-08T00:09:13;1.80;99.90
51950;DHT22;37974;53.218;6.640;2024-03-08T00:11:39;1.70;99.90
51950;DHT22;37974;53.218;6.640;2024-03-08T00:14:05;1.80;99.90
51950;DHT22;37974;53.218;6.640;2024-03-08T00:16:33;2.50;99.90
51950;DHT22;37974;53.218;6.640;2024-03-08T00:18:59;2.20;99.90
51950;DHT22;37974;53.218;6.640;2024-03-08T00:21:25;2.40;99.90
51950;DHT22;37974;53.218;6.640;2024-03-08T00:23:52;2.20;99.90
51950;DHT22;37974;53.218;6.640;2024-03-08T00:26:20;2.20;99.90
51950;DHT22;37974;53.218;6.640;2024-03-08T00:28:48;2.50;99.90
51950;DHT22;37974;53.218;6.640;2024-03-08T00:31:14;1.80;99.90
51950;DHT22;37974;53.218;6.640;2024-03-08T00:33:42;2.20;99.90
51950;DHT22;37974;53.218;6.640;2024-03-08T00:36:08;2.10;99.90
51950;DHT22;37974;53.218;6.640;2024-03-08T00:38:34;2.60;99.90
51950;DHT22;37974;53.218;6.640;2024-03-08T00:41:00;1.70;99.90
51950;DHT22;37974;53.218;6.640;2024-03-08T00:43:25;1.90;99.90
51950;DHT22;37974;53.218;6.640;2024-03-08T00:45:51;2.10;99.90
51950;DHT22;37974;53.218;6.640;2024-03-08T00:48:17;2.00;99.90
51950;DHT22;37974;53.218;6.640;2024-03-08T00:50:44;2.40;99.90
51950;DHT22;37974;53.218;6.640;2024-03-08T00:53:15;1.90;99.90
51950;DHT22;37974;53.218;6.640;2024-03-08T00:55:42;2.10;99.90
51950;DHT22;37974;53.218;6.640;2024-03-08T00:58:08;1.40;99.90
51950;DHT22;37974;53.218;6.640;2024-03-08T01:00:34;1.80;99.90
51950;DHT22;37974;53.218;6.640;2024-03-08T01:03:00;2.00;99.90
51950;DHT22;37974;53.218;6.640;2024-03-08T01:05:26;2.30;99.90
51950;DHT22;37974;53.218;6.640;2024-03-08T01:07:51;1.90;99.90
51950;DHT22;37974;53.218;6.640;2024-03-08T01:10:17;1.40;99.90
51950;DHT22;37974;53.218;6.640;2024-03-08T01:12:43;1.70;99.90
51950;DHT22;37974;53.218;6.640;2024-03-08T01:15:09;2.10;99.90
51950;DHT22;37974;53.218;6.640;2024-03-08T01:17:35;1.40;99.90
51950;DHT22;37974;53.218;6.640;2024-03-08T01:20:02;1.40;99.90
51950;DHT22;37974;53.218;6.640;2024-03-08T01:22:28;1.30;99.90
51950;DHT22;37974;53.218;6.640;2024-03-08T01:24:55;1.30;99.90
51950;DHT22;37974;53.218;6.640;2024-03-08T01:27:21;1.80;99.90
51950;DHT22;37974;53.218;6.640;2024-03-08T01:29:47;1.90;99.90
51950;DHT22;37974;53.218;6.640;2024-03-08T01:32:13;1.80;99.90
51950;DHT22;37974;53.218;6.640;2024-03-08T01:34:40;1.80;99.90
51950;DHT22;37974;53.218;6.640;2024-03-08T01:37:06;1.20;99.90
51950;DHT22;37974;53.218;6.640;2024-03-08T01:39:32;1.90;99.90
51950;DHT22;37974;53.218;6.640;2024-03-08T01:41:59;1.20;99.90
51950;DHT22;37974;53.218;6.640;2024-03-08T01:44:24;1.60;99.90
51950;DHT22;37974;53.218;6.640;2024-03-08T01:46:52;1.50;99.90
51950;DHT22;37974;53.218;6.640;2024-03-08T01:49:19;1.60;99.90
51950;DHT22;37974;53.218;6.640;2024-03-08T01:51:47;2.10;99.90
51950;DHT22;37974;53.218;6.640;2024-03-08T01:54:15;1.00;99.90
51950;DHT22;37974;53.218;6.640;2024-03-08T01:56:42;1.40;99.90
51950;DHT22;37974;53.218;6.640;2024-03-08T01:59:08;1.80;99.90
51950;DHT22;37974;53.218;6.640;2024-03-08T02:01:35;1.70;99.90
51950;DHT22;37974;53.218;6.640;2024-03-08T02:04:01;1.60;99.90
51950;DHT22;37974;53.218;6.640;2024-03-08T02:06:26;1.10;99.90
51950;DHT22;37974;53.218;6.640;2024-03-08T02:08:52;1.50;99.90
51950;DHT22;37974;53.218;6.640;2024-03-08T02:11:19;2.00;99.90
51950;DHT22;37974;53.218;6.640;2024-03-08T02:13:46;1.90;99.90
51950;DHT22;37974;53.218;6.640;2024-03-08T02:16:12;1.50;99.90
51950;DHT22;37974;53.218;6.640;2024-03-08T02:18:37;1.10;99.90
51950;DHT22;37974;53.218;6.640;2024-03-08T02:21:05;1.90;99.90
51950;DHT22;37974;53.218;6.640;2024-03-08T02:23:32;1.10;99.90
51950;DHT22;37974;53.218;6.640;2024-03-08T02:25:58;1.40;99.90
51950;DHT22;37974;53.218;6.640;2024-03-08T02:28:24;1.30;99.90
51950;DHT22;37974;53.218;6.640;2024-03-08T02:30:51;2.20;99.90
51950;DHT22;37974;53.218;6.640;2024-03-08T02:33:21;1.40;99.90
51950;DHT22;37974;53.218;6.640;2024-03-08T02:35:48;0.90;99.90
51950;DHT22;37974;53.218;6.640;2024-03-08T02:38:15;1.40;99.90
51950;DHT22;37974;53.218;6.640;2024-03-08T02:40:43;1.30;99.90
51950;DHT22;37974;53.218;6.640;2024-03-08T02:43:09;0.90;99.90
51950;DHT22;37974;53.218;6.640;2024-03-08T02:45:36;1.40;99.90
51950;DHT22;37974;53.218;6.640;2024-03-08T02:48:02;0.80;99.90
51950;DHT22;37974;53.218;6.640;2024-03-08T02:50:27;0.70;99.90
51950;DHT22;37974;53.218;6.640;2024-03-08T02:52:54;0.70;99.90
51950;DHT22;37974;53.218;6.640;2024-03-08T02:55:19;2.00;99.90
51950;DHT22;37974;53.218;6.640;2024-03-08T02:57:46;1.30;99.90
51950;DHT22;37974;53.218;6.640;2024-03-08T03:00:13;1.90;99.90
51950;DHT22;37974;53.218;6.640;2024-03-08T03:02:39;0.70;99.90
51950;DHT22;37974;53.218;6.640;2024-03-08T03:05:05;1.40;99.90
51950;DHT22;37974;53.218;6.640;2024-03-08T03:07:33;0.70;99.90
51950;DHT22;37974;53.218;6.640;2024-03-08T03:10:00;1.10;99.90
51950;DHT22;37974;53.218;6.640;2024-03-08T03:12:27;0.70;99.90
51950;DHT22;37974;53.218;6.640;2024-03-08T03:14:53;1.60;99.90
51950;DHT22;37974;53.218;6.640;2024-03-08T03:17:19;1.20;99.90
51950;DHT22;37974;53.218;6.640;2024-03-08T03:19:45;0.60;99.90
51950;DHT22;37974;53.218;6.640;2024-03-08T03:22:12;1.30;99.90
51950;DHT22;37974;53.218;6.640;2024-03-08T03:24:38;1.30;99.90
51950;DHT22;37974;53.218;6.640;2024-03-08T03:27:04;0.60;99.90
51950;DHT22;37974;53.218;6.640;2024-03-08T03:29:39;0.60;99.90
51950;DHT22;37974;53.218;6.640;2024-03-08T03:32:08;1.20;99.90
51950;DHT22;37974;53.218;6.640;2024-03-08T03:34:34;0.80;99.90
51950;DHT22;37974;53.218;6.640;2024-03-08T03:37:03;1.10;99.90
51950;DHT22;37974;53.218;6.640;2024-03-08T03:39:30;0.50;99.90
51950;DHT22;37974;53.218;6.640;2024-03-08T03:41:58;0.50;99.90
51950;DHT22;37974;53.218;6.640;2024-03-08T03:44:24;0.70;99.90
51950;DHT22;37974;53.218;6.640;2024-03-08T03:46:50;1.20;99.90
51950;DHT22;37974;53.218;6.640;2024-03-08T03:49:17;1.70;99.90
51950;DHT22;37974;53.218;6.640;2024-03-08T03:51:43;0.40;99.90
51950;DHT22;37974;53.218;6.640;2024-03-08T03:54:10;0.90;99.90
51950;DHT22;37974;53.218;6.640;2024-03-08T03:56:36;1.50;99.90
51950;DHT22;37974;53.218;6.640;2024-03-08T03:59:02;0.90;99.90
51950;DHT22;37974;53.218;6.640;2024-03-08T04:01:28;0.90;99.90
51950;DHT22;37974;53.218;6.640;2024-03-08T04:03:55;1.50;99.90
51950;DHT22;37974;53.218;6.640;2024-03-08T04:06:20;1.10;99.90
51950;DHT22;37974;53.218;6.640;2024-03-08T04:08:46;1.60;99.90
51950;DHT22;37974;53.218;6.640;2024-03-08T04:11:12;1.60;99.90
51950;DHT22;37974;53.218;6.640;2024-03-08T04:13:37;1.50;99.90
51950;DHT22;37974;53.218;6.640;2024-03-08T04:16:03;1.30;99.90
51950;DHT22;37974;53.218;6.640;2024-03-08T04:18:34;0.20;99.90
51950;DHT22;37974;53.218;6.640;2024-03-08T04:21:02;1.00;99.90
51950;DHT22;37974;53.218;6.640;2024-03-08T04:23:28;0.20;99.90
51950;DHT22;37974;53.218;6.640;2024-03-08T04:25:54;1.00;99.90
51950;DHT22;37974;53.218;6.640;2024-03-08T04:28:20;1.30;99.90
51950;DHT22;37974;53.218;6.640;2024-03-08T04:30:45;0.70;99.90
51950;DHT22;37974;53.218;6.640;2024-03-08T04:33:11;1.20;99.90
51950;DHT22;37974;53.218;6.640;2024-03-08T04:35:37;0.80;99.90
51950;DHT22;37974;53.218;6.640;2024-03-08T04:38:03;1.50;99.90
51950;DHT22;37974;53.218;6.640;2024-03-08T04:40:31;0.20;99.90
51950;DHT22;37974;53.218;6.640;2024-03-08T04:42:58;1.20;99.90
51950;DHT22;37974;53.218;6.640;2024-03-08T04:45:24;1.20;99.90
51950;DHT22;37974;53.218;6.640;2024-03-08T04:47:51;0.40;99.90
51950;DHT22;37974;53.218;6.640;2024-03-08T04:50:18;0.30;99.90
51950;DHT22;37974;53.218;6.640;2024-03-08T04:52:44;0.50;99.90
51950;DHT22;37974;53.218;6.640;2024-03-08T04:55:09;1.00;99.90
51950;DHT22;37974;53.218;6.640;2024-03-08T04:57:35;0.90;99.90
51950;DHT22;37974;53.218;6.640;2024-03-08T05:00:02;0.90;99.90
51950;DHT22;37974;53.218;6.640;2024-03-08T05:02:33;0.10;99.90
51950;DHT22;37974;53.218;6.640;2024-03-08T05:04:58;0.10;99.90
51950;DHT22;37974;53.218;6.640;2024-03-08T05:07:24;0.10;99.90
51950;DHT22;37974;53.218;6.640;2024-03-08T05:09:51;0.90;99.90
51950;DHT22;37974;53.218;6.640;2024-03-08T05:12:18;1.40;99.90
51950;DHT22;37974;53.218;6.640;2024-03-08T05:14:45;1.20;99.90
51950;DHT22;37974;53.218;6.640;2024-03-08T05:17:15;0.10;99.90
51950;DHT22;37974;53.218;6.640;2024-03-08T05:19:40;1.30;99.90
51950;DHT22;37974;53.218;6.640;2024-03-08T05:22:06;0.90;99.90
51950;DHT22;37974;53.218;6.640;2024-03-08T05:24:32;0.70;99.90
51950;DHT22;37974;53.218;6.640;2024-03-08T05:26:58;0.50;99.90
51950;DHT22;37974;53.218;6.640;2024-03-08T05:29:26;0.00;99.90
51950;DHT22;37974;53.218;6.640;2024-03-08T05:31:52;0.40;99.90
51950;DHT22;37974;53.218;6.640;2024-03-08T05:34:18;0.80;99.90
51950;DHT22;37974;53.218;6.640;2024-03-08T05:36:45;1.40;99.90
51950;DHT22;37974;53.218;6.640;2024-03-08T05:39:13;0.50;99.90
51950;DHT22;37974;53.218;6.640;2024-03-08T05:41:39;0.50;99.90
51950;DHT22;37974;53.218;6.640;2024-03-08T05:44:06;0.70;99.90
51950;DHT22;37974;53.218;6.640;2024-03-08T05:46:31;0.50;99.90
51950;DHT22;37974;53.218;6.640;2024-03-08T05:48:57;1.00;99.90
51950;DHT22;37974;53.218;6.640;2024-03-08T05:51:25;-0.10;99.90
51950;DHT22;37974;53.218;6.640;2024-03-08T05:53:53;0.40;99.90
51950;DHT22;37974;53.218;6.640;2024-03-08T05:56:21;1.10;99.90
51950;DHT22;37974;53.218;6.640;2024-03-08T05:58:48;1.10;99.90
51950;DHT22;37974;53.218;6.640;2024-03-08T06:01:16;-0.10;99.90
51950;DHT22;37974;53.218;6.640;2024-03-08T06:03:41;0.50;99.90
51950;DHT22;37974;53.218;6.640;2024-03-08T06:06:12;0.00;99.90
51950;DHT22;37974;53.218;6.640;2024-03-08T06:08:38;0.50;99.90
51950;DHT22;37974;53.218;6.640;2024-03-08T06:11:04;0.50;99.90
51950;DHT22;37974;53.218;6.640;2024-03-08T06:13:32;0.00;99.90
51950;DHT22;37974;53.218;6.640;2024-03-08T06:15:59;0.30;99.90
51950;DHT22;37974;53.218;6.640;2024-03-08T06:18:26;0.60;99.90
51950;DHT22;37974;53.218;6.640;2024-03-08T06:20:52;0.20;99.90
51950;DHT22;37974;53.218;6.640;2024-03-08T06:23:18;0.50;99.90
51950;DHT22;37974;53.218;6.640;2024-03-08T06:25:44;0.70;99.90
51950;DHT22;37974;53.218;6.640;2024-03-08T06:28:10;1.10;99.90
51950;DHT22;37974;53.218;6.640;2024-03-08T06:30:36;0.40;99.90
51950;DHT22;37974;53.218;6.640;2024-03-08T06:33:02;0.70;99.90
51950;DHT22;37974;53.218;6.640;2024-03-08T06:35:27;-0.10;99.90
51950;DHT22;37974;53.218;6.640;2024-03-08T06:37:53;-0.10;99.90
51950;DHT22;37974;53.218;6.640;2024-03-08T06:40:19;-0.10;99.90
51950;DHT22;37974;53.218;6.640;2024-03-08T06:42:45;0.10;99.90
51950;DHT22;37974;53.218;6.640;2024-03-08T06:45:11;0.20;99.90
51950;DHT22;37974;53.218;6.640;2024-03-08T06:47:37;0.00;99.90
51950;DHT22;37974;53.218;6.640;2024-03-08T06:50:03;0.00;99.90
51950;DHT22;37974;53.218;6.640;2024-03-08T06:52:30;0.00;99.90
51950;DHT22;37974;53.218;6.640;2024-03-08T06:54:55;0.70;99.90
51950;DHT22;37974;53.218;6.640;2024-03-08T06:57:22;0.70;99.90
51950;DHT22;37974;53.218;6.640;2024-03-08T06:59:49;0.40;99.90
51950;DHT22;37974;53.218;6.640;2024-03-08T07:02:15;0.60;99.90
51950;DHT22;37974;53.218;6.640;2024-03-08T07:04:41;0.10;99.90
51950;DHT22;37974;53.218;6.640;2024-03-08T07:07:07;0.20;99.90
51950;DHT22;37974;53.218;6.640;2024-03-08T07:09:38;1.10;99.90
51950;DHT22;37974;53.218;6.640;2024-03-08T07:12:04;0.40;99.90
51950;DHT22;37974;53.218;6.640;2024-03-08T07:14:30;0.20;99.90
51950;DHT22;37974;53.218;6.640;2024-03-08T07:16:57;1.40;99.90
51950;DHT22;37974;53.218;6.640;2024-03-08T07:19:22;0.90;99.90
51950;DHT22;37974;53.218;6.640;2024-03-08T07:21:49;0.80;99.90
51950;DHT22;37974;53.218;6.640;2024-03-08T07:24:15;1.10;99.90
51950;DHT22;37974;53.218;6.640;2024-03-08T07:27:04;0.40;99.90
51950;DHT22;37974;53.218;6.640;2024-03-08T07:29:32;1.40;99.90
51950;DHT22;37974;53.218;6.640;2024-03-08T07:31:59;0.50;99.90
51950;DHT22;37974;53.218;6.640;2024-03-08T07:34:26;0.50;99.90
51950;DHT22;37974;53.218;6.640;2024-03-08T07:36:51;0.90;99.90
51950;DHT22;37974;53.218;6.640;2024-03-08T07:39:17;2.00;99.90
51950;DHT22;37974;53.218;6.640;2024-03-08T07:41:43;0.70;99.90
51950;DHT22;37974;53.218;6.640;2024-03-08T07:44:09;1.30;99.90
51950;DHT22;37974;53.218;6.640;2024-03-08T07:46:36;0.80;99.90
51950;DHT22;37974;53.218;6.640;2024-03-08T07:49:02;0.80;99.90
51950;DHT22;37974;53.218;6.640;2024-03-08T07:51:28;1.60;99.90
51950;DHT22;37974;53.218;6.640;2024-03-08T07:53:54;0.90;99.90
51950;DHT22;37974;53.218;6.640;2024-03-08T07:56:20;1.70;99.90
51950;DHT22;37974;53.218;6.640;2024-03-08T07:58:47;1.40;99.90
51950;DHT22;37974;53.218;6.640;2024-03-08T08:01:17;1.70;99.90
51950;DHT22;37974;53.218;6.640;2024-03-08T08:03:43;1.70;99.90
51950;DHT22;37974;53.218;6.640;2024-03-08T08:06:09;1.20;99.90
51950;DHT22;37974;53.218;6.640;2024-03-08T08:08:35;1.20;99.90
51950;DHT22;37974;53.218;6.640;2024-03-08T08:11:02;1.30;99.90
51950;DHT22;37974;53.218;6.640;2024-03-08T08:13:28;1.40;99.90
51950;DHT22;37974;53.218;6.640;2024-03-08T08:15:58;1.80;99.90
51950;DHT22;37974;53.218;6.640;2024-03-08T08:18:23;2.20;99.90
51950;DHT22;37974;53.218;6.640;2024-03-08T08:20:51;1.50;99.90
51950;DHT22;37974;53.218;6.640;2024-03-08T08:23:18;2.10;99.90
51950;DHT22;37974;53.218;6.640;2024-03-08T08:25:45;2.10;99.90
51950;DHT22;37974;53.218;6.640;2024-03-08T08:28:11;2.40;99.90
51950;DHT22;37974;53.218;6.640;2024-03-08T08:30:38;2.10;99.90
51950;DHT22;37974;53.218;6.640;2024-03-08T08:33:04;1.80;99.90
51950;DHT22;37974;53.218;6.640;2024-03-08T08:35:31;1.90;99.90
51950;DHT22;37974;53.218;6.640;2024-03-08T08:37:58;2.70;99.90
51950;DHT22;37974;53.218;6.640;2024-03-08T08:40:25;2.00;99.90
51950;DHT22;37974;53.218;6.640;2024-03-08T08:42:51;2.50;99.90
51950;DHT22;37974;53.218;6.640;2024-03-08T08:45:18;2.80;99.90
51950;DHT22;37974;53.218;6.640;2024-03-08T08:47:44;2.20;99.90
51950;DHT22;37974;53.218;6.640;2024-03-08T08:50:10;2.30;99.90
51950;DHT22;37974;53.218;6.640;2024-03-08T08:52:38;2.30;99.90
51950;DHT22;37974;53.218;6.640;2024-03-08T08:55:04;2.70;99.90
51950;DHT22;37974;53.218;6.640;2024-03-08T08:57:32;2.40;99.90
51950;DHT22;37974;53.218;6.640;2024-03-08T08:59:59;3.30;99.90
51950;DHT22;37974;53.218;6.640;2024-03-08T09:02:26;2.70;99.90
51950;DHT22;37974;53.218;6.640;2024-03-08T09:04:52;2.50;99.90
51950;DHT22;37974;53.218;6.640;2024-03-08T09:07:17;2.60;99.90
51950;DHT22;37974;53.218;6.640;2024-03-08T09:09:44;2.90;99.90
51950;DHT22;37974;53.218;6.640;2024-03-08T09:12:10;2.70;99.90
51950;DHT22;37974;53.218;6.640;2024-03-08T09:14:40;2.80;99.90
51950;DHT22;37974;53.218;6.640;2024-03-08T09:17:06;2.80;99.90
51950;DHT22;37974;53.218;6.640;2024-03-08T09:19:35;2.90;99.90
51950;DHT22;37974;53.218;6.640;2024-03-08T09:22:00;3.30;99.90
51950;DHT22;37974;53.218;6.640;2024-03-08T09:24:26;3.00;99.90
51950;DHT22;37974;53.218;6.640;2024-03-08T09:26:52;3.40;99.90
51950;DHT22;37974;53.218;6.640;2024-03-08T09:29:18;3.50;99.90
51950;DHT22;37974;53.218;6.640;2024-03-08T09:31:43;3.20;99.90
51950;DHT22;37974;53.218;6.640;2024-03-08T09:34:11;3.30;99.90
51950;DHT22;37974;53.218;6.640;2024-03-08T09:36:37;3.80;99.90
51950;DHT22;37974;53.218;6.640;2024-03-08T09:39:03;3.40;99.90
51950;DHT22;37974;53.218;6.640;2024-03-08T09:41:29;3.40;99.90
51950;DHT22;37974;53.218;6.640;2024-03-08T09:43:56;3.50;99.90
51950;DHT22;37974;53.218;6.640;2024-03-08T09:46:25;3.50;99.90
51950;DHT22;37974;53.218;6.640;2024-03-08T09:48:53;3.60;99.90
51950;DHT22;37974;53.218;6.640;2024-03-08T09:51:22;3.60;99.90
51950;DHT22;37974;53.218;6.640;2024-03-08T09:53:49;3.70;99.90
51950;DHT22;37974;53.218;6.640;2024-03-08T09:56:15;3.70;99.90
51950;DHT22;37974;53.218;6.640;2024-03-08T09:58:40;3.80;99.90
51950;DHT22;37974;53.218;6.640;2024-03-08T10:01:39;4.30;99.90
51950;DHT22;37974;53.218;6.640;2024-03-08T10:04:05;3.90;99.90
51950;DHT22;37974;53.218;6.640;2024-03-08T10:06:32;3.90;99.90
51950;DHT22;37974;53.218;6.640;2024-03-08T10:08:57;3.90;99.90
51950;DHT22;37974;53.218;6.640;2024-03-08T10:11:24;4.00;99.90
51950;DHT22;37974;53.218;6.640;2024-03-08T10:13:50;4.10;99.90
51950;DHT22;37974;53.218;6.640;2024-03-08T10:16:16;4.20;99.90
51950;DHT22;37974;53.218;6.640;2024-03-08T10:18:46;4.20;99.90
51950;DHT22;37974;53.218;6.640;2024-03-08T10:21:12;4.20;99.90
51950;DHT22;37974;53.218;6.640;2024-03-08T10:23:39;4.30;99.90
51950;DHT22;37974;53.218;6.640;2024-03-08T10:26:12;4.40;99.90
51950;DHT22;37974;53.218;6.640;2024-03-08T10:28:45;4.40;99.90
51950;DHT22;37974;53.218;6.640;2024-03-08T10:31:13;4.50;99.90
51950;DHT22;37974;53.218;6.640;2024-03-08T10:33:41;4.50;99.90
51950;DHT22;37974;53.218;6.640;2024-03-08T10:36:08;4.50;99.90
51950;DHT22;37974;53.218;6.640;2024-03-08T10:38:37;4.60;99.90
51950;DHT22;37974;53.218;6.640;2024-03-08T10:41:06;4.70;99.90
51950;DHT22;37974;53.218;6.640;2024-03-08T10:43:42;4.70;99.90
51950;DHT22;37974;53.218;6.640;2024-03-08T10:46:30;4.80;99.90
51950;DHT22;37974;53.218;6.640;2024-03-08T10:48:57;4.80;99.90
51950;DHT22;37974;53.218;6.640;2024-03-08T10:51:25;4.90;99.90
51950;DHT22;37974;53.218;6.640;2024-03-08T10:53:52;5.00;99.90
51950;DHT22;37974;53.218;6.640;2024-03-08T10:56:19;5.00;99.90
51950;DHT22;37974;53.218;6.640;2024-03-08T10:58:46;5.10;99.90
51950;DHT22;37974;53.218;6.640;2024-03-08T11:01:12;5.20;99.90
51950;DHT22;37974;53.218;6.640;2024-03-08T11:08:41;5.40;99.90
51950;DHT22;37974;53.218;6.640;2024-03-08T11:11:24;5.40;99.90
51950;DHT22;37974;53.218;6.640;2024-03-08T11:13:53;5.40;99.90
51950;DHT22;37974;53.218;6.640;2024-03-08T11:18:58;5.60;99.90
51950;DHT22;37974;53.218;6.640;2024-03-08T11:21:30;5.70;99.90
51950;DHT22;37974;53.218;6.640;2024-03-08T11:24:06;5.80;99.90
51950;DHT22;37974;53.218;6.640;2024-03-08T11:26:33;5.80;99.90
51950;DHT22;37974;53.218;6.640;2024-03-08T11:32:04;6.00;99.90
51950;DHT22;37974;53.218;6.640;2024-03-08T11:34:31;6.10;99.90
51950;DHT22;37974;53.218;6.640;2024-03-08T11:36:58;6.20;99.90
51950;DHT22;37974;53.218;6.640;2024-03-08T11:39:25;6.20;99.90
51950;DHT22;37974;53.218;6.640;2024-03-08T11:41:51;6.30;99.90
51950;DHT22;37974;53.218;6.640;2024-03-08T11:44:17;6.30;99.90
51950;DHT22;37974;53.218;6.640;2024-03-08T11:46:43;6.40;99.90
51950;DHT22;37974;53.218;6.640;2024-03-08T11:49:14;6.70;99.90
51950;DHT22;37974;53.218;6.640;2024-03-08T11:51:42;6.50;99.90
51950;DHT22;37974;53.218;6.640;2024-03-08T11:54:12;6.50;99.90
51950;DHT22;37974;53.218;6.640;2024-03-08T11:56:38;6.60;99.90
51950;DHT22;37974;53.218;6.640;2024-03-08T11:59:05;6.60;99.90
51950;DHT22;37974;53.218;6.640;2024-03-08T12:01:36;6.60;99.90
51950;DHT22;37974;53.218;6.640;2024-03-08T12:04:01;6.60;99.90
51950;DHT22;37974;53.218;6.640;2024-03-08T12:06:37;6.70;99.90
51950;DHT22;37974;53.218;6.640;2024-03-08T12:09:08;6.70;99.90
51950;DHT22;37974;53.218;6.640;2024-03-08T12:11:35;6.70;99.90
51950;DHT22;37974;53.218;6.640;2024-03-08T12:14:02;6.70;99.90
51950;DHT22;37974;53.218;6.640;2024-03-08T12:16:28;6.70;99.90
51950;DHT22;37974;53.218;6.640;2024-03-08T12:18:53;6.70;99.90
51950;DHT22;37974;53.218;6.640;2024-03-08T12:21:20;6.90;99.90
51950;DHT22;37974;53.218;6.640;2024-03-08T12:23:47;6.90;99.90
51950;DHT22;37974;53.218;6.640;2024-03-08T12:26:23;7.00;99.90
51950;DHT22;37974;53.218;6.640;2024-03-08T12:28:49;7.00;99.90
51950;DHT22;37974;53.218;6.640;2024-03-08T12:31:16;7.00;99.90
51950;DHT22;37974;53.218;6.640;2024-03-08T12:33:50;7.10;99.90
51950;DHT22;37974;53.218;6.640;2024-03-08T12:36:17;7.10;99.90
51950;DHT22;37974;53.218;6.640;2024-03-08T12:38:44;7.20;99.90
51950;DHT22;37974;53.218;6.640;2024-03-08T12:41:14;7.20;99.90
51950;DHT22;37974;53.218;6.640;2024-03-08T12:43:40;7.30;99.90
51950;DHT22;37974;53.218;6.640;2024-03-08T12:46:06;7.30;99.90
51950;DHT22;37974;53.218;6.640;2024-03-08T12:48:35;7.30;99.90
51950;DHT22;37974;53.218;6.640;2024-03-08T12:51:01;7.40;99.90
51950;DHT22;37974;53.218;6.640;2024-03-08T12:53:27;7.30;99.90
51950;DHT22;37974;53.218;6.640;2024-03-08T12:55:54;7.40;99.90
51950;DHT22;37974;53.218;6.640;2024-03-08T12:58:22;7.50;99.90
51950;DHT22;37974;53.218;6.640;2024-03-08T13:00:48;7.50;99.90
51950;DHT22;37974;53.218;6.640;2024-03-08T13:03:14;7.50;99.90
51950;DHT22;37974;53.218;6.640;2024-03-08T13:05:40;7.60;99.90
51950;DHT22;37974;53.218;6.640;2024-03-08T13:08:08;7.60;99.90
51950;DHT22;37974;53.218;6.640;2024-03-08T13:10:41;7.70;99.90
51950;DHT22;37974;53.218;6.640;2024-03-08T13:13:10;7.70;99.90
51950;DHT22;37974;53.218;6.640;2024-03-08T13:15:37;7.80;99.90
51950;DHT22;37974;53.218;6.640;2024-03-08T13:18:02;7.90;99.90
51950;DHT22;37974;53.218;6.640;2024-03-08T13:20:28;7.80;99.90
51950;DHT22;37974;53.218;6.640;2024-03-08T13:22:55;7.90;99.90
51950;DHT22;37974;53.218;6.640;2024-03-08T13:25:21;7.90;99.90
51950;DHT22;37974;53.218;6.640;2024-03-08T13:27:47;7.90;99.90
51950;DHT22;37974;53.218;6.640;2024-03-08T13:30:14;7.90;99.90
51950;DHT22;37974;53.218;6.640;2024-03-08T13:32:44;7.90;99.90
51950;DHT22;37974;53.218;6.640;2024-03-08T13:35:10;8.00;99.90
51950;DHT22;37974;53.218;6.640;2024-03-08T13:37:42;7.90;99.90
51950;DHT22;37974;53.218;6.640;2024-03-08T13:40:08;8.00;99.90
51950;DHT22;37974;53.218;6.640;2024-03-08T13:42:40;8.00;99.90
51950;DHT22;37974;53.218;6.640;2024-03-08T13:45:09;8.00;99.90
51950;DHT22;37974;53.218;6.640;2024-03-08T13:47:38;8.00;99.90
51950;DHT22;37974;53.218;6.640;2024-03-08T13:50:07;8.00;99.90
51950;DHT22;37974;53.218;6.640;2024-03-08T13:52:38;8.00;99.90
51950;DHT22;37974;53.218;6.640;2024-03-08T13:55:04;8.10;99.90
51950;DHT22;37974;53.218;6.640;2024-03-08T13:57:31;8.00;99.90
51950;DHT22;37974;53.218;6.640;2024-03-08T13:59:58;8.00;99.90
51950;DHT22;37974;53.218;6.640;2024-03-08T14:02:23;8.00;99.90
51950;DHT22;37974;53.218;6.640;2024-03-08T14:04:54;8.00;99.90
51950;DHT22;37974;53.218;6.640;2024-03-08T14:07:21;8.00;99.90
51950;DHT22;37974;53.218;6.640;2024-03-08T14:09:46;8.00;99.90
51950;DHT22;37974;53.218;6.640;2024-03-08T14:12:12;8.00;99.90
51950;DHT22;37974;53.218;6.640;2024-03-08T14:14:41;8.00;99.90
51950;DHT22;37974;53.218;6.640;2024-03-08T14:17:07;8.00;99.90
51950;DHT22;37974;53.218;6.640;2024-03-08T14:19:35;8.00;99.90
51950;DHT22;37974;53.218;6.640;2024-03-08T14:22:01;8.00;99.90
51950;DHT22;37974;53.218;6.640;2024-03-08T14:24:31;8.00;99.90
51950;DHT22;37974;53.218;6.640;2024-03-08T14:26:57;8.00;99.90
51950;DHT22;37974;53.218;6.640;2024-03-08T14:29:25;8.00;99.90
51950;DHT22;37974;53.218;6.640;2024-03-08T14:31:55;8.00;99.90
51950;DHT22;37974;53.218;6.640;2024-03-08T14:34:25;8.00;99.90
51950;DHT22;37974;53.218;6.640;2024-03-08T14:36:53;8.00;99.90
51950;DHT22;37974;53.218;6.640;2024-03-08T14:39:19;8.00;99.90
51950;DHT22;37974;53.218;6.640;2024-03-08T14:41:48;7.90;99.90
51950;DHT22;37974;53.218;6.640;2024-03-08T14:44:14;7.90;99.90
51950;DHT22;37974;53.218;6.640;2024-03-08T14:46:41;7.90;99.90
51950;DHT22;37974;53.218;6.640;2024-03-08T14:49:08;7.90;99.90
51950;DHT22;37974;53.218;6.640;2024-03-08T14:51:34;7.90;99.90
51950;DHT22;37974;53.218;6.640;2024-03-08T14:54:00;7.90;99.90
51950;DHT22;37974;53.218;6.640;2024-03-08T14:56:26;7.80;99.90
51950;DHT22;37974;53.218;6.640;2024-03-08T14:58:53;7.80;99.90
51950;DHT22;37974;53.218;6.640;2024-03-08T15:01:19;7.80;99.90
51950;DHT22;37974;53.218;6.640;2024-03-08T15:03:50;7.80;99.90
51950;DHT22;37974;53.218;6.640;2024-03-08T15:06:16;7.80;99.90
51950;DHT22;37974;53.218;6.640;2024-03-08T15:08:45;7.80;99.90
51950;DHT22;37974;53.218;6.640;2024-03-08T15:11:11;7.80;99.90
51950;DHT22;37974;53.218;6.640;2024-03-08T15:13:37;7.80;99.90
51950;DHT22;37974;53.218;6.640;2024-03-08T15:16:10;7.80;99.90
51950;DHT22;37974;53.218;6.640;2024-03-08T15:18:44;7.80;99.90
51950;DHT22;37974;53.218;6.640;2024-03-08T15:21:14;7.80;99.90
51950;DHT22;37974;53.218;6.640;2024-03-08T15:23:45;7.70;99.90
51950;DHT22;37974;53.218;6.640;2024-03-08T15:26:17;7.70;99.90
51950;DHT22;37974;53.218;6.640;2024-03-08T15:28:44;7.70;99.90
51950;DHT22;37974;53.218;6.640;2024-03-08T15:31:11;7.60;99.90
51950;DHT22;37974;53.218;6.640;2024-03-08T15:33:39;7.80;99.90
51950;DHT22;37974;53.218;6.640;2024-03-08T15:36:11;7.60;99.90
51950;DHT22;37974;53.218;6.640;2024-03-08T15:38:39;7.60;99.90
51950;DHT22;37974;53.218;6.640;2024-03-08T15:41:05;7.60;99.90
51950;DHT22;37974;53.218;6.640;2024-03-08T15:43:36;7.60;99.90
51950;DHT22;37974;53.218;6.640;2024-03-08T15:46:03;7.60;99.90
51950;DHT22;37974;53.218;6.640;2024-03-08T15:48:31;7.60;99.90
51950;DHT22;37974;53.218;6.640;2024-03-08T15:50:57;7.60;99.90
51950;DHT22;37974;53.218;6.640;2024-03-08T15:53:23;7.60;99.90
51950;DHT22;37974;53.218;6.640;2024-03-08T15:55:49;7.50;99.90